Time;durP1;ratioP1;P1;durP2;ratioP2;P2;SDS_P1;SDS_P2;PMS_P1;PMS_P2;Temp;Humidity;BMP_temperature;BMP_pressure;BME280_temperature;BME280_humidity;BME280_pressure;Samples;Min_cycle;Max_cycle;Signal;HPM_P1;HPM_P2
2021/07/28 00:18:51;;;;;;;10.43;6.43;;;;;;;19.25;69.25;100128.13;21495560;80;100319;-81
2021/07/28 00:48:42;;;;;;;13.77;6.93;;;;;;;18.97;70.18;100115.72;21539746;81;99517;-81
2021/07/28 01:18:43;;;;;;;15.68;7.55;;;;;;;18.78;70.93;100098.55;21527746;81;99408;-81
2021/07/28 01:48:45;;;;;;;11.80;7.67;;;;;;;18.59;72.91;100088.92;21507614;81;99506;-81
2021/07/28 02:18:45;;;;;;;15.47;8.37;;;;;;;18.48;73.05;100085.02;21546864;80;99828;-82
2021/07/28 02:48:47;;;;;;;14.90;9.15;;;;;;;18.53;74.01;100094.87;21568132;80;99495;-82
2021/07/28 03:18:47;;;;;;;15.07;8.87;;;;;;;18.89;75.14;100095.45;21512386;80;99470;-81
2021/07/28 03:48:48;;;;;;;17.57;10.45;;;;;;;18.97;75.26;100091.25;21500235;80;99554;-81
2021/07/28 04:18:49;;;;;;;17.87;8.75;;;;;;;19.33;75.82;100124.69;21491235;81;99960;-81
2021/07/28 04:48:50;;;;;;;12.70;7.20;;;;;;;20.08;76.58;100089.06;21492281;81;99541;-81
2021/07/28 05:18:50;;;;;;;18.43;8.50;;;;;;;20.78;75.00;100081.05;21516803;81;99452;-78
2021/07/28 05:48:51;;;;;;;23.60;9.68;;;;;;;21.44;75.12;100062.38;21517998;81;99729;-83
2021/07/28 06:18:52;;;;;;;18.55;10.40;;;;;;;21.43;78.91;100052.42;21496899;80;99452;-83
2021/07/28 06:48:53;;;;;;;20.72;13.18;;;;;;;21.56;83.06;100048.29;21511738;81;99648;-81
2021/07/28 07:18:53;;;;;;;11.97;7.90;;;;;;;22.33;84.97;100044.31;21546468;81;99806;-82
2021/07/28 07:48:56;;;;;;;10.70;6.10;;;;;;;23.98;82.60;100037.48;21566369;80;99851;-82
2021/07/28 08:18:58;;;;;;;9.83;5.03;;;;;;;25.16;75.21;100022.61;21496166;81;99446;-80
2021/07/28 08:48:59;;;;;;;9.27;5.73;;;;;;;27.36;67.69;99996.70;21511560;81;99291;-80
2021/07/28 09:18:59;;;;;;;9.13;5.00;;;;;;;31.64;58.13;99995.03;21572022;80;99210;-80
2021/07/28 09:49:06;;;;;;;9.05;4.50;;;;;;;32.09;50.54;99968.32;21567890;80;99753;-79
2021/07/28 10:19:07;;;;;;;9.25;5.90;;;;;;;33.61;44.30;99959.45;20644640;84;99402;-79
2021/07/28 10:49:08;;;;;;;10.93;5.70;;;;;;;32.79;43.98;99960.84;21483095;80;99177;-79
2021/07/28 11:19:09;;;;;;;8.93;5.60;;;;;;;32.52;44.24;99946.30;21564267;80;99255;-79
2021/07/28 11:49:09;;;;;;;12.23;6.92;;;;;;;32.99;41.77;99938.86;21579364;80;99367;-79
2021/07/28 12:19:13;;;;;;;9.95;5.80;;;;;;;33.71;39.35;99906.98;21325474;81;99303;-78
2021/07/28 12:49:14;;;;;;;9.58;5.67;;;;;;;33.74;41.62;99918.73;21268124;81;99377;-79
2021/07/28 13:19:15;;;;;;;8.88;5.42;;;;;;;32.95;39.42;99922.08;21492685;80;99178;-80
2021/07/28 13:49:16;;;;;;;10.08;5.92;;;;;;;32.90;40.17;99922.18;21565220;80;99094;-77
2021/07/28 14:19:19;;;;;;;8.03;5.00;;;;;;;32.49;39.51;99921.72;21536117;80;99554;-78
2021/07/28 14:49:20;;;;;;;7.53;4.95;;;;;;;31.41;39.20;99921.17;21518728;80;99325;-79
2021/07/28 15:19:22;;;;;;;11.00;6.12;;;;;;;30.77;40.45;99913.42;21482627;81;99138;-79
2021/07/28 15:49:22;;;;;;;7.20;4.27;;;;;;;29.90;42.77;99928.80;21497500;81;99706;-79
2021/07/28 16:19:23;;;;;;;12.70;7.80;;;;;;;28.91;43.54;99933.92;21328652;81;99049;-79
2021/07/28 16:49:24;;;;;;;8.45;5.33;;;;;;;27.65;46.96;99964.53;21216841;81;99555;-79
2021/07/28 17:19:25;;;;;;;10.78;5.67;;;;;;;26.34;50.07;99977.52;21401426;80;99502;-79
2021/07/28 17:49:26;;;;;;;11.53;6.50;;;;;;;25.24;52.69;100005.48;21455835;81;99619;-79
2021/07/28 18:19:26;;;;;;;14.40;8.40;;;;;;;24.16;57.65;100024.10;21514958;81;99753;-84
2021/07/28 18:49:27;;;;;;;11.63;8.13;;;;;;;22.93;65.35;99976.52;21502812;81;99450;-83
2021/07/28 19:19:28;;;;;;;14.07;8.58;;;;;;;22.41;68.32;99999.31;21505111;81;99199;-84
2021/07/28 19:49:29;;;;;;;15.28;8.88;;;;;;;21.79;71.60;100025.37;21496282;81;100044;-83
2021/07/28 20:19:30;;;;;;;14.15;9.05;;;;;;;21.33;73.60;100030.61;20980254;83;99915;-82
2021/07/28 20:49:30;;;;;;;14.17;8.93;;;;;;;21.04;75.24;100037.75;21492274;80;99779;-82
2021/07/28 21:19:31;;;;;;;16.05;8.48;;;;;;;20.73;75.09;100062.84;21516839;80;99787;-82
2021/07/28 21:50:02;;;;;;;16.48;7.17;;;;;;;20.23;75.43;100067.80;21500689;80;99734;-81
2021/07/28 22:20:03;;;;;;;11.97;7.95;;;;;;;19.58;76.89;100068.91;21501171;81;99745;-81
2021/07/28 23:20:30;;;;;;;12.55;6.87;;;;;;;18.46;78.19;100063.78;21510384;81;99388;-82
2021/07/28 23:50:29;;;;;;;11.93;7.53;;;;;;;17.97;78.96;100073.38;21500460;80;99438;-80
